Time;durP1;ratioP1;P1;durP2;ratioP2;P2;SDS_P1;SDS_P2;PMS_P1;PMS_P2;Temp;Humidity;BMP_temperature;BMP_pressure;BME280_temperature;BME280_humidity;BME280_pressure;Samples;Min_cycle;Max_cycle;Signal;HPM_P1;HPM_P2
2021/12/03 00:02:03;;;;;;;;;29.50;25.25;;;;;5.21;100.00;101211.25;5017706;28;45385;-74
2021/12/03 00:04:29;;;;;;;;;36.00;29.25;;;;;5.29;100.00;101217.88;5018101;28;45270;-75
2021/12/03 00:06:55;;;;;;;;;27.25;25.75;;;;;5.24;100.00;101202.09;5016813;28;45206;-74
2021/12/03 00:09:22;;;;;;;;;36.00;30.50;;;;;5.34;100.00;101211.38;5017715;28;45300;-73
2021/12/03 00:11:47;;;;;;;;;31.50;25.00;;;;;5.37;100.00;101218.41;5018142;28;45328;-74
2021/12/03 00:14:13;;;;;;;;;34.50;28.75;;;;;5.40;100.00;101228.91;5017779;28;45241;-74
2021/12/03 00:16:38;;;;;;;;;30.25;23.75;;;;;5.38;100.00;101231.38;5018150;28;45339;-75
2021/12/03 00:19:04;;;;;;;;;26.25;26.00;;;;;5.39;100.00;101229.66;5017700;28;45486;-76
2021/12/03 00:21:30;;;;;;;;;24.25;21.50;;;;;5.37;100.00;101215.81;5017957;28;45379;-74
2021/12/03 00:23:56;;;;;;;;;26.75;22.50;;;;;5.39;100.00;101210.03;5017560;28;45432;-74
2021/12/03 00:26:22;;;;;;;;;30.25;28.00;;;;;5.46;100.00;101216.47;5017890;28;45327;-73
2021/12/03 00:28:48;;;;;;;;;22.75;21.50;;;;;5.48;100.00;101212.34;5017893;28;45721;-77
2021/12/03 00:31:14;;;;;;;;;28.25;28.25;;;;;5.47;100.00;101217.41;5017906;28;45925;-76
2021/12/03 00:33:40;;;;;;;;;29.50;27.25;;;;;5.55;100.00;101219.75;5017600;28;45194;-75
2021/12/03 00:36:08;;;;;;;;;31.75;26.75;;;;;5.58;100.00;101209.66;5017682;28;45254;-75
2021/12/03 00:38:40;;;;;;;;;24.25;23.00;;;;;5.62;100.00;101215.03;5017359;28;45230;-76
2021/12/03 00:41:09;;;;;;;;;22.50;17.25;;;;;5.56;100.00;101208.66;5017020;28;45297;-78
2021/12/03 00:43:40;;;;;;;;;28.00;22.50;;;;;5.65;100.00;101222.97;5017611;28;45390;-76
2021/12/03 00:46:06;;;;;;;;;25.25;21.50;;;;;5.70;100.00;101219.94;5017432;28;45463;-73
2021/12/03 00:48:33;;;;;;;;;21.75;19.25;;;;;5.67;100.00;101213.69;5017173;28;45302;-76
2021/12/03 00:50:59;;;;;;;;;25.25;22.00;;;;;5.72;100.00;101233.75;5017256;28;46624;-74
2021/12/03 00:53:24;;;;;;;;;22.75;20.50;;;;;5.72;100.00;101228.63;5017175;28;45399;-75
2021/12/03 00:55:50;;;;;;;;;34.25;21.75;;;;;5.73;100.00;101232.97;5017385;28;45384;-75
2021/12/03 00:58:16;;;;;;;;;24.75;22.50;;;;;5.69;100.00;101222.38;5017384;28;45406;-74
2021/12/03 01:00:41;;;;;;;;;28.50;23.50;;;;;5.72;100.00;101233.75;5017146;28;45363;-75
2021/12/03 01:03:07;;;;;;;;;23.00;20.75;;;;;5.74;100.00;101234.75;5016990;28;45436;-75
2021/12/03 01:05:34;;;;;;;;;20.50;17.00;;;;;5.81;100.00;101238.66;5014701;28;45443;-73
2021/12/03 01:08:00;;;;;;;;;25.00;22.00;;;;;5.79;100.00;101227.38;5016718;28;45281;-74
2021/12/03 01:10:29;;;;;;;;;25.50;20.00;;;;;5.83;100.00;101231.97;5016974;28;45341;-74
2021/12/03 01:12:56;;;;;;;;;25.75;22.00;;;;;5.84;100.00;101244.03;4999787;28;45521;-74
2021/12/03 01:15:30;;;;;;;;;35.50;33.50;;;;;5.85;100.00;101245.81;5017748;28;45341;-73
2021/12/03 01:17:56;;;;;;;;;35.50;33.25;;;;;5.87;100.00;101253.63;5016661;28;45471;-73
2021/12/03 01:20:22;;;;;;;;;37.50;34.25;;;;;5.87;100.00;101254.53;5016792;28;45439;-74
2021/12/03 01:22:51;;;;;;;;;53.25;43.50;;;;;5.89;100.00;101252.06;5017001;28;45415;-75
2021/12/03 01:25:18;;;;;;;;;48.50;42.25;;;;;5.94;100.00;101253.25;5017433;28;45315;-73
2021/12/03 01:27:45;;;;;;;;;43.25;37.75;;;;;5.97;100.00;101253.50;5016872;28;45672;-74
2021/12/03 01:30:13;;;;;;;;;48.25;39.00;;;;;5.97;100.00;101256.06;5016390;28;45862;-73
2021/12/03 01:32:40;;;;;;;;;34.75;31.50;;;;;5.94;100.00;101245.56;5016726;28;45349;-74
2021/12/03 01:35:07;;;;;;;;;44.25;34.00;;;;;5.97;100.00;101250.03;5016649;28;45253;-74
2021/12/03 01:37:33;;;;;;;;;33.75;28.75;;;;;5.97;100.00;101256.06;4998789;28;48331;-73
2021/12/03 01:39:59;;;;;;;;;37.00;29.75;;;;;5.92;100.00;101251.38;5016294;28;46022;-73
2021/12/03 01:42:24;;;;;;;;;35.25;31.75;;;;;5.83;100.00;101252.53;4998922;28;45327;-74
2021/12/03 01:44:50;;;;;;;;;28.00;27.25;;;;;5.92;100.00;101257.44;4998730;28;45394;-74
2021/12/03 01:47:16;;;;;;;;;30.50;26.00;;;;;5.89;100.00;101258.06;5016616;28;46062;-75
2021/12/03 01:49:41;;;;;;;;;24.50;21.25;;;;;5.88;100.00;101260.56;5016414;28;45352;-75
2021/12/03 01:52:07;;;;;;;;;24.25;22.25;;;;;5.88;100.00;101271.72;5016216;28;45348;-75
2021/12/03 01:54:33;;;;;;;;;19.50;19.50;;;;;5.89;100.00;101276.06;5016490;28;45606;-74
2021/12/03 01:56:59;;;;;;;;;24.50;20.25;;;;;5.85;100.00;101270.59;5016021;28;45841;-73
2021/12/03 01:59:25;;;;;;;;;24.25;20.00;;;;;5.85;100.00;101268.03;5016257;28;45234;-76
2021/12/03 02:01:51;;;;;;;;;25.00;19.50;;;;;5.81;100.00;101272.06;5014783;28;45366;-76
2021/12/03 02:04:16;;;;;;;;;22.50;20.00;;;;;5.76;100.00;101267.38;5016813;28;45432;-74
2021/12/03 02:06:42;;;;;;;;;18.00;17.00;;;;;5.73;100.00;101265.50;4998171;28;45468;-73
2021/12/03 02:09:08;;;;;;;;;16.25;16.25;;;;;5.68;100.00;101262.59;5015974;28;45245;-76
2021/12/03 02:11:34;;;;;;;;;15.75;15.75;;;;;5.61;100.00;101255.25;5016335;28;45207;-76
2021/12/03 02:14:00;;;;;;;;;14.50;13.75;;;;;5.72;100.00;101262.00;5016197;28;45548;-76
2021/12/03 02:16:26;;;;;;;;;15.50;14.75;;;;;5.73;100.00;101260.34;5015412;28;45534;-77
2021/12/03 02:18:52;;;;;;;;;19.00;16.50;;;;;5.75;100.00;101266.50;5015915;28;45386;-73
2021/12/03 02:21:19;;;;;;;;;19.00;16.25;;;;;5.73;100.00;101261.22;5016666;28;45313;-79
2021/12/03 02:23:46;;;;;;;;;12.75;12.75;;;;;5.79;100.00;101265.91;5016567;28;45222;-78
2021/12/03 02:26:13;;;;;;;;;18.00;15.25;;;;;5.83;100.00;101267.94;5015530;28;46104;-75
2021/12/03 02:28:50;;;;;;;;;14.00;12.75;;;;;5.79;100.00;101270.19;5016059;28;45842;-74
2021/12/03 02:31:20;;;;;;;;;18.00;13.25;;;;;5.87;100.00;101274.19;5016321;28;45389;-73
2021/12/03 02:33:46;;;;;;;;;12.00;12.00;;;;;5.91;100.00;101259.88;5016535;28;45537;-73
2021/12/03 02:36:12;;;;;;;;;12.25;11.00;;;;;5.95;100.00;101260.19;5015470;28;45313;-75
2021/12/03 02:38:39;;;;;;;;;12.25;12.25;;;;;5.94;100.00;101268.69;4998217;28;45791;-73
2021/12/03 02:41:04;;;;;;;;;13.00;9.75;;;;;5.91;100.00;101265.91;5015568;28;45396;-74
2021/12/03 02:43:31;;;;;;;;;9.75;9.75;;;;;5.92;100.00;101253.94;4998102;28;45635;-73
2021/12/03 02:45:57;;;;;;;;;13.00;10.75;;;;;5.93;100.00;101251.50;5015282;28;45424;-75
2021/12/03 02:48:24;;;;;;;;;11.50;11.50;;;;;5.93;100.00;101259.22;5015605;28;45454;-77
2021/12/03 02:50:50;;;;;;;;;12.00;9.25;;;;;5.90;100.00;101246.13;5015511;28;45191;-75
2021/12/03 02:53:16;;;;;;;;;9.25;8.25;;;;;5.89;100.00;101242.66;5016106;28;45182;-76
2021/12/03 02:55:42;;;;;;;;;14.00;12.00;;;;;5.89;100.00;101232.38;5015294;28;45301;-75
2021/12/03 02:58:09;;;;;;;;;13.00;9.50;;;;;5.90;100.00;101230.72;4997494;28;45379;-76
2021/12/03 03:00:36;;;;;;;;;9.00;8.25;;;;;5.88;100.00;101229.72;5015835;28;45403;-78
2021/12/03 03:03:02;;;;;;;;;12.25;9.00;;;;;5.89;100.00;101221.22;4997959;28;45483;-76
2021/12/03 03:05:28;;;;;;;;;10.25;8.50;;;;;5.86;100.00;101210.72;5015237;28;46004;-77
2021/12/03 03:07:55;;;;;;;;;11.00;11.00;;;;;5.93;100.00;101212.97;4981069;28;45830;-77
2021/12/03 03:10:28;;;;;;;;;9.25;8.75;;;;;5.96;100.00;101220.84;4997772;28;45293;-78
2021/12/03 03:12:54;;;;;;;;;8.25;7.00;;;;;5.91;100.00;101211.94;5015595;28;45334;-77
2021/12/03 03:15:20;;;;;;;;;9.25;9.25;;;;;5.92;100.00;101202.56;5015374;28;45252;-76
2021/12/03 03:17:46;;;;;;;;;10.50;9.50;;;;;5.91;100.00;101206.81;5015628;28;45302;-81
2021/12/03 03:20:14;;;;;;;;;8.75;6.75;;;;;5.86;100.00;101203.00;5015263;28;45235;-81
2021/12/03 03:22:41;;;;;;;;;9.25;8.25;;;;;5.89;100.00;101196.41;4998106;28;45309;-78
2021/12/03 03:25:09;;;;;;;;;9.25;8.00;;;;;5.90;100.00;101205.03;5014770;28;45481;-74
2021/12/03 03:27:35;;;;;;;;;12.25;9.00;;;;;5.95;100.00;101207.91;5015325;28;45320;-75
2021/12/03 03:30:02;;;;;;;;;8.50;7.25;;;;;5.96;100.00;101207.13;5018914;28;45220;-74
2021/12/03 03:32:28;;;;;;;;;11.00;7.75;;;;;5.93;100.00;101209.47;5019088;28;45246;-75
2021/12/03 03:34:54;;;;;;;;;7.50;7.00;;;;;5.93;100.00;101209.47;5018223;28;45920;-74
2021/12/03 03:37:20;;;;;;;;;8.00;7.00;;;;;5.93;100.00;101207.81;5000643;28;45499;-74
2021/12/03 03:39:46;;;;;;;;;12.50;8.00;;;;;5.93;100.00;101222.31;5018881;28;45328;-74
2021/12/03 03:42:12;;;;;;;;;9.25;8.00;;;;;5.88;100.00;101209.16;5018484;28;45581;-74
2021/12/03 03:44:38;;;;;;;;;12.25;8.00;;;;;5.93;100.00;101209.47;5017185;28;46442;-74
2021/12/03 03:47:06;;;;;;;;;11.00;9.00;;;;;5.85;100.00;101199.56;5018089;28;45742;-74
2021/12/03 03:49:32;;;;;;;;;11.00;10.00;;;;;5.90;100.00;101217.88;5018519;28;45300;-75
2021/12/03 03:51:59;;;;;;;;;8.25;7.50;;;;;5.84;100.00;101212.28;5018449;28;45346;-74
2021/12/03 03:54:24;;;;;;;;;7.00;7.00;;;;;5.76;100.00;101198.00;5017922;28;45450;-74
2021/12/03 03:56:50;;;;;;;;;12.25;9.00;;;;;5.84;100.00;101213.19;5017976;28;45490;-75
2021/12/03 03:59:17;;;;;;;;;7.25;6.50;;;;;5.81;100.00;101200.13;5018708;28;45439;-74
2021/12/03 04:01:47;;;;;;;;;13.25;8.25;;;;;5.80;100.00;101207.72;5018459;28;45270;-74
2021/12/03 04:04:15;;;;;;;;;9.25;8.50;;;;;5.75;100.00;101197.13;5000151;28;45563;-75
2021/12/03 04:06:40;;;;;;;;;8.00;7.50;;;;;5.76;100.00;101198.94;5018023;28;45887;-74
2021/12/03 04:09:07;;;;;;;;;9.75;6.50;;;;;5.71;100.00;101200.25;5017837;28;45455;-74
2021/12/03 04:11:33;;;;;;;;;11.50;8.25;;;;;5.78;100.00;101202.47;5018384;28;45440;-74
2021/12/03 04:14:00;;;;;;;;;7.75;7.25;;;;;5.79;100.00;101187.97;5017554;28;46298;-75
2021/12/03 04:16:26;;;;;;;;;8.75;7.00;;;;;5.80;100.00;101184.59;5017813;28;45212;-74
2021/12/03 04:18:53;;;;;;;;;8.00;8.00;;;;;5.78;100.00;101166.50;5017890;28;45237;-74
2021/12/03 04:21:18;;;;;;;;;7.75;7.25;;;;;5.86;100.00;101182.47;5018170;28;45618;-76
2021/12/03 04:23:44;;;;;;;;;11.50;10.00;;;;;5.87;100.00;101189.38;5018098;28;45896;-74
2021/12/03 04:26:10;;;;;;;;;13.00;7.00;;;;;5.80;100.00;101185.50;5017445;28;45605;-74
2021/12/03 04:28:35;;;;;;;;;11.25;8.25;;;;;5.86;100.00;101200.44;5017941;28;45293;-73
2021/12/03 04:31:01;;;;;;;;;7.00;7.00;;;;;5.90;100.00;101205.03;5017737;28;45436;-73
2021/12/03 04:33:27;;;;;;;;;8.50;7.50;;;;;5.86;100.00;101185.94;5017480;28;45913;-73
2021/12/03 04:35:53;;;;;;;;;8.75;7.25;;;;;5.94;100.00;101175.28;5017338;28;45901;-73
2021/12/03 04:38:19;;;;;;;;;6.25;6.25;;;;;5.92;100.00;101182.00;5017748;28;45424;-74
2021/12/03 04:40:44;;;;;;;;;10.25;9.00;;;;;5.91;100.00;101186.25;5017807;28;45435;-73
2021/12/03 04:43:11;;;;;;;;;10.75;8.00;;;;;5.94;100.00;101186.44;5017293;28;45299;-73
2021/12/03 04:45:37;;;;;;;;;10.75;7.25;;;;;5.96;100.00;101184.00;5017400;28;45804;-73
2021/12/03 04:48:04;;;;;;;;;3.75;3.75;;;;;6.01;100.00;101185.22;5017355;28;45284;-75
2021/12/03 04:50:32;;;;;;;;;6.25;6.00;;;;;6.02;100.00;101182.78;5017732;28;45516;-73
2021/12/03 04:52:58;;;;;;;;;12.25;8.25;;;;;6.08;100.00;101189.13;5016996;28;45518;-73
2021/12/03 04:55:25;;;;;;;;;7.50;6.00;;;;;6.08;100.00;101182.31;5017071;28;45494;-73
2021/12/03 04:57:53;;;;;;;;;4.00;4.00;;;;;6.12;100.00;101184.28;5017149;28;45379;-75
2021/12/03 05:00:32;;;;;;;;;7.50;7.00;;;;;6.09;100.00;101184.09;5017639;28;45338;-75
2021/12/03 05:03:00;;;;;;;;;3.25;3.25;;;;;6.04;100.00;101180.31;5017137;28;45916;-74
2021/12/03 05:05:31;;;;;;;;;6.50;6.50;;;;;6.03;100.00;101173.38;4999160;28;45304;-73
2021/12/03 05:07:57;;;;;;;;;8.50;6.75;;;;;5.99;100.00;101164.56;4999035;28;45457;-75
2021/12/03 05:10:25;;;;;;;;;6.50;4.00;;;;;5.96;100.00;101161.75;5017435;28;45383;-75
2021/12/03 05:12:51;;;;;;;;;7.00;4.00;;;;;6.00;100.00;101162.88;5016728;28;45881;-78
2021/12/03 05:15:18;;;;;;;;;8.00;6.00;;;;;6.00;100.00;101147.47;5017360;28;45270;-76
2021/12/03 05:17:44;;;;;;;;;8.00;6.00;;;;;5.97;100.00;101136.97;5017372;28;45406;-77
2021/12/03 05:20:10;;;;;;;;;6.50;5.50;;;;;5.98;100.00;101125.91;5017035;28;45346;-75
2021/12/03 05:22:35;;;;;;;;;8.00;7.50;;;;;6.02;100.00;101140.75;5016818;28;45384;-78
2021/12/03 05:25:02;;;;;;;;;7.50;6.50;;;;;6.02;100.00;101135.59;5016630;28;45489;-78
2021/12/03 05:27:28;;;;;;;;;7.00;6.00;;;;;6.03;100.00;101130.59;5017032;28;45269;-76
2021/12/03 05:29:54;;;;;;;;;5.50;5.50;;;;;6.11;100.00;101143.06;5016845;28;45587;-78
2021/12/03 05:32:19;;;;;;;;;3.00;3.00;;;;;6.14;100.00;101131.31;5016602;28;46137;-75
2021/12/03 05:34:45;;;;;;;;;7.75;5.50;;;;;6.17;100.00;101125.47;5016915;28;45425;-74
2021/12/03 05:37:11;;;;;;;;;6.00;5.50;;;;;6.21;100.00;101122.34;5016631;28;45324;-75
2021/12/03 05:39:37;;;;;;;;;5.00;5.00;;;;;6.23;100.00;101125.00;5017127;28;45523;-74
2021/12/03 05:42:04;;;;;;;;;6.00;4.50;;;;;6.27;100.00;101125.31;5016373;28;45264;-74
2021/12/03 05:44:30;;;;;;;;;6.00;5.50;;;;;6.21;100.00;101116.31;5017242;28;45340;-75
2021/12/03 05:46:58;;;;;;;;;7.50;6.00;;;;;6.28;100.00;101121.94;5016783;28;45883;-75
2021/12/03 05:49:24;;;;;;;;;5.50;2.75;;;;;6.28;100.00;101115.94;5017001;28;45357;-74
2021/12/03 05:51:49;;;;;;;;;7.50;3.75;;;;;6.33;100.00;101117.09;5015289;28;45337;-75
2021/12/03 05:54:15;;;;;;;;;3.50;3.50;;;;;6.31;100.00;101111.88;5016548;28;45431;-75
2021/12/03 05:56:41;;;;;;;;;2.50;2.50;;;;;6.39;100.00;101112.41;5016522;28;45325;-75
2021/12/03 05:59:06;;;;;;;;;5.00;3.00;;;;;6.39;100.00;101090.91;5016417;28;45490;-75
2021/12/03 06:01:32;;;;;;;;;5.00;4.00;;;;;6.43;100.00;101083.50;5015958;28;45934;-73
2021/12/03 06:03:58;;;;;;;;;4.50;2.00;;;;;6.52;100.00;101084.91;5015992;28;45286;-74
2021/12/03 06:06:23;;;;;;;;;4.00;3.75;;;;;6.51;100.00;101073.72;5016216;28;45349;-74
2021/12/03 06:08:49;;;;;;;;;3.75;3.75;;;;;6.52;100.00;101075.50;5016293;28;45553;-74
2021/12/03 06:11:15;;;;;;;;;4.00;3.25;;;;;6.47;100.00;101072.63;5016442;28;46037;-74
2021/12/03 06:13:40;;;;;;;;;4.00;2.00;;;;;6.56;100.00;101084.31;5016061;28;45439;-74
2021/12/03 06:16:11;;;;;;;;;3.00;3.00;;;;;6.56;100.00;101090.34;5015961;28;45449;-74
2021/12/03 06:18:37;;;;;;;;;4.00;3.00;;;;;6.51;100.00;101081.44;5016421;28;45319;-74
2021/12/03 06:21:06;;;;;;;;;8.00;7.00;;;;;6.59;100.00;101093.09;5015626;28;45282;-74
2021/12/03 06:23:32;;;;;;;;;2.25;2.25;;;;;6.55;100.00;101101.44;5016013;28;45532;-74
2021/12/03 06:26:00;;;;;;;;;5.50;5.00;;;;;6.54;100.00;101093.59;5015597;28;45436;-77
2021/12/03 06:28:27;;;;;;;;;4.50;3.00;;;;;6.50;100.00;101090.84;4998428;28;45634;-75
2021/12/03 06:30:53;;;;;;;;;7.25;6.75;;;;;6.50;100.00;101101.13;5015544;28;45663;-74
2021/12/03 06:33:19;;;;;;;;;4.50;4.00;;;;;6.41;100.00;101110.81;5015938;28;45178;-75
2021/12/03 06:35:46;;;;;;;;;3.75;3.75;;;;;6.39;100.00;101098.63;5016013;28;45542;-76
2021/12/03 06:38:12;;;;;;;;;3.75;2.50;;;;;6.33;100.00;101081.09;5015885;28;45635;-77
2021/12/03 06:40:38;;;;;;;;;3.00;3.00;;;;;6.31;100.00;101081.03;5015830;28;45645;-74
2021/12/03 06:43:04;;;;;;;;;3.00;3.00;;;;;6.39;100.00;101101.19;5015204;28;45376;-75
2021/12/03 06:45:29;;;;;;;;;6.00;3.25;;;;;6.41;100.00;101110.81;5015554;28;45285;-73
2021/12/03 06:47:55;;;;;;;;;4.75;3.00;;;;;6.35;100.00;101089.81;4997750;28;45559;-73
2021/12/03 06:50:23;;;;;;;;;6.00;4.00;;;;;6.40;100.00;101103.91;5015382;28;45373;-75
2021/12/03 06:53:01;;;;;;;;;2.75;2.00;;;;;6.34;100.00;101100.91;5015356;28;45464;-75
2021/12/03 06:55:27;;;;;;;;;5.00;2.50;;;;;6.35;100.00;101103.59;5015489;28;45404;-75
2021/12/03 06:57:53;;;;;;;;;5.50;3.00;;;;;6.33;100.00;101100.03;5015732;28;45408;-73
2021/12/03 07:00:22;;;;;;;;;3.50;3.25;;;;;6.27;100.00;101096.13;5015393;28;45286;-72
2021/12/03 07:02:47;;;;;;;;;6.00;4.00;;;;;6.26;100.00;101092.69;5017422;28;45756;-73
2021/12/03 07:05:14;;;;;;;;;3.00;3.00;;;;;6.23;100.00;101099.28;5000988;28;45298;-75
2021/12/03 07:07:41;;;;;;;;;7.00;4.00;;;;;6.23;100.00;101095.06;5019054;28;45472;-76
2021/12/03 07:10:07;;;;;;;;;2.00;2.00;;;;;6.21;100.00;101088.03;5018470;28;45692;-73
2021/12/03 07:12:33;;;;;;;;;6.00;3.00;;;;;6.19;100.00;101090.47;5018868;28;45837;-81
2021/12/03 07:14:59;;;;;;;;;8.50;4.00;;;;;6.19;100.00;101080.19;5018681;28;45379;-73
2021/12/03 07:17:29;;;;;;;;;2.50;2.25;;;;;6.21;100.00;101086.34;5018995;28;45318;-72
2021/12/03 07:19:57;;;;;;;;;3.00;3.00;;;;;6.07;100.00;101059.72;5018123;28;47073;-74
2021/12/03 07:22:23;;;;;;;;;4.25;3.00;;;;;6.16;100.00;101073.19;5018612;28;45801;-73
2021/12/03 07:24:49;;;;;;;;;2.50;2.25;;;;;6.15;100.00;101068.81;5018358;28;45843;-74
2021/12/03 07:27:15;;;;;;;;;1.00;1.00;;;;;6.12;100.00;101076.31;5001335;28;45495;-74
2021/12/03 07:29:42;;;;;;;;;6.00;1.00;;;;;6.04;100.00;101068.13;5018581;28;45579;-74
2021/12/03 07:32:08;;;;;;;;;3.25;1.25;;;;;6.14;100.00;101073.88;5018259;28;45250;-73
2021/12/03 07:34:34;;;;;;;;;2.00;2.00;;;;;6.12;100.00;101078.91;5018985;28;45286;-73
2021/12/03 07:36:59;;;;;;;;;2.25;2.25;;;;;6.11;100.00;101081.38;5018931;28;45431;-79
2021/12/03 07:39:25;;;;;;;;;1.25;1.25;;;;;6.15;100.00;101089.38;5018694;28;45908;-74
2021/12/03 07:41:50;;;;;;;;;3.00;3.00;;;;;6.17;100.00;101074.97;5018348;28;45555;-76
2021/12/03 07:44:16;;;;;;;;;2.00;2.00;;;;;6.17;100.00;101084.34;5018601;28;45498;-74
2021/12/03 07:46:41;;;;;;;;;2.00;2.00;;;;;6.04;100.00;101072.34;5019645;28;45285;-74
2021/12/03 07:49:07;;;;;;;;;2.50;2.00;;;;;6.07;100.00;101081.94;5017766;28;46325;-75
2021/12/03 07:51:33;;;;;;;;;3.00;2.50;;;;;5.99;100.00;101058.28;5018080;28;45332;-80
2021/12/03 07:53:58;;;;;;;;;3.75;2.25;;;;;6.06;100.00;101078.50;5017888;28;45454;-74
2021/12/03 07:56:24;;;;;;;;;3.25;3.25;;;;;6.08;100.00;101083.72;5000616;28;45423;-82
2021/12/03 07:58:50;;;;;;;;;3.00;3.00;;;;;6.07;100.00;101090.56;5018015;28;46557;-74
2021/12/03 08:01:15;;;;;;;;;2.75;2.00;;;;;6.05;100.00;101071.56;5019883;28;45279;-73
2021/12/03 08:03:41;;;;;;;;;4.00;3.00;;;;;6.05;100.00;101079.28;5018232;28;45291;-74
2021/12/03 08:06:09;;;;;;;;;3.00;3.00;;;;;6.04;100.00;101083.53;5018093;28;45562;-74
2021/12/03 08:08:38;;;;;;;;;3.00;2.00;;;;;6.03;100.00;101075.72;5017960;28;46307;-76
2021/12/03 08:11:04;;;;;;;;;5.75;2.00;;;;;6.01;100.00;101078.19;5017609;28;45372;-76
2021/12/03 08:13:29;;;;;;;;;3.75;3.00;;;;;6.08;100.00;101094.91;5017599;28;45459;-79
2021/12/03 08:15:55;;;;;;;;;3.00;3.00;;;;;6.06;100.00;101070.78;5017838;28;45768;-73
2021/12/03 08:18:21;;;;;;;;;3.25;1.50;;;;;6.10;100.00;101077.00;5017881;28;45326;-74
2021/12/03 08:20:47;;;;;;;;;7.50;3.00;;;;;6.09;100.00;101081.28;5018050;28;45245;-74
2021/12/03 08:23:13;;;;;;;;;2.00;2.00;;;;;6.11;100.00;101066.81;5017267;28;45263;-75
2021/12/03 08:25:39;;;;;;;;;2.25;2.25;;;;;6.14;100.00;101073.88;5017419;28;45306;-74
2021/12/03 08:28:05;;;;;;;;;4.50;3.75;;;;;6.19;100.00;101067.34;5017154;28;45955;-73
2021/12/03 08:30:31;;;;;;;;;5.50;3.00;;;;;6.22;100.00;101072.69;5017515;28;45321;-74
2021/12/03 08:32:58;;;;;;;;;6.50;5.00;;;;;6.25;100.00;101070.34;5017219;28;45474;-78
2021/12/03 08:35:25;;;;;;;;;3.00;3.00;;;;;6.32;100.00;101074.19;5017622;28;46072;-74
2021/12/03 08:37:51;;;;;;;;;3.25;3.00;;;;;6.24;100.00;101055.69;5016920;28;46757;-74
2021/12/03 08:40:19;;;;;;;;;2.25;2.25;;;;;6.33;100.00;101073.41;5017634;28;45829;-73
2021/12/03 08:42:45;;;;;;;;;3.50;3.50;;;;;6.31;100.00;101064.72;5017689;28;45422;-75
2021/12/03 08:45:12;;;;;;;;;4.50;3.25;;;;;6.33;100.00;101063.09;5017515;28;45593;-75
2021/12/03 08:47:39;;;;;;;;;2.50;1.25;;;;;6.39;100.00;101070.34;5017205;28;45401;-76
2021/12/03 08:50:12;;;;;;;;;4.75;4.00;;;;;6.37;100.00;101056.50;5016929;28;45937;-74
2021/12/03 08:53:10;;;;;;;;;2.00;2.00;;;;;6.39;100.00;101065.19;5017087;28;45377;-76
2021/12/03 08:55:35;;;;;;;;;4.00;3.00;;;;;6.37;100.00;101071.94;5018026;28;45346;-75
2021/12/03 08:58:01;;;;;;;;;2.75;2.75;;;;;6.41;100.00;101081.63;5017661;28;45402;-75
2021/12/03 09:00:29;;;;;;;;;4.25;3.00;;;;;6.40;100.00;101074.69;5016817;28;45250;-75
2021/12/03 09:02:55;;;;;;;;;2.00;2.00;;;;;6.34;100.00;101073.50;5016906;28;45428;-76
2021/12/03 09:05:21;;;;;;;;;3.00;3.00;;;;;6.33;100.00;101081.09;5017169;28;45570;-77
2021/12/03 09:07:47;;;;;;;;;3.25;3.00;;;;;6.25;100.00;101057.47;5017080;28;45488;-76
2021/12/03 09:10:13;;;;;;;;;4.00;3.00;;;;;6.33;100.00;101069.16;5016646;28;45371;-76
2021/12/03 09:12:40;;;;;;;;;5.50;3.00;;;;;6.28;100.00;101064.50;4999639;28;45383;-74
2021/12/03 09:15:13;;;;;;;;;4.50;3.50;;;;;6.35;100.00;101071.81;5016859;28;45277;-77
2021/12/03 09:22:53;;;;;;;;;4.25;3.50;;;;;6.32;100.00;101053.59;5016557;28;45210;-76
2021/12/03 09:25:35;;;;;;;;;4.00;4.00;;;;;6.36;100.00;101047.88;5016063;28;45575;-75
2021/12/03 09:28:05;;;;;;;;;5.50;3.00;;;;;6.32;100.00;101041.66;5016224;28;46226;-76
2021/12/03 09:30:36;;;;;;;;;5.75;3.00;;;;;6.30;100.00;101035.53;5016394;28;45346;-75
2021/12/03 09:33:06;;;;;;;;;5.75;3.00;;;;;6.33;100.00;101034.81;5016315;28;45392;-74
2021/12/03 09:35:35;;;;;;;;;3.50;3.50;;;;;6.27;100.00;101032.75;5016641;28;45317;-75
2021/12/03 09:38:01;;;;;;;;;4.75;3.75;;;;;6.38;100.00;101029.97;5016132;28;45463;-76
2021/12/03 09:40:30;;;;;;;;;6.75;4.25;;;;;6.34;100.00;101024.66;5016232;28;45285;-75
2021/12/03 09:42:56;;;;;;;;;3.25;3.00;;;;;6.35;100.00;101025.53;5016066;28;45383;-76
2021/12/03 09:45:22;;;;;;;;;6.00;3.00;;;;;6.37;100.00;101025.66;5016365;28;45329;-74
2021/12/03 09:47:49;;;;;;;;;4.75;3.00;;;;;6.40;100.00;101008.75;4998340;28;45393;-75
2021/12/03 09:50:15;;;;;;;;;4.00;2.75;;;;;6.41;100.00;101022.47;5016379;28;45801;-72
2021/12/03 09:55:15;;;;;;;;;6.00;4.00;;;;;6.31;100.00;100997.84;5016538;28;45481;-77
2021/12/03 10:03:12;;;;;;;;;6.50;4.00;;;;;6.52;100.00;101024.06;5016003;28;45356;-75
2021/12/03 10:36:36;;;;;;;;;6.50;6.00;;;;;6.38;100.00;100963.13;5015661;28;45373;-80
2021/12/03 10:44:49;;;;;;;;;4.25;3.25;;;;;6.40;100.00;100943.53;5018919;28;45878;-76
2021/12/03 10:50:02;;;;;;;;;3.00;3.00;;;;;6.42;100.00;100919.72;5019805;28;45464;-75
2021/12/03 10:52:55;;;;;;;;;5.50;5.50;;;;;6.42;100.00;100919.72;5000929;28;47121;-76
2021/12/03 12:20:12;;;;;;;;;6.00;5.25;;;;;6.10;100.00;100740.28;5017858;28;45937;-76
2021/12/03 12:43:06;;;;;;;;;1.75;1.50;;;;;6.12;100.00;100724.16;5016894;28;45786;-78
2021/12/03 13:25:53;;;;;;;;;1.00;1.00;;;;;6.01;100.00;100646.41;4975243;28;45386;-80
2021/12/03 14:07:47;;;;;;;;;2.00;2.00;;;;;6.24;100.00;100584.31;5015848;28;45218;-74
2021/12/03 14:37:40;;;;;;;;;7.00;5.75;;;;;6.40;100.00;100525.28;5015297;28;45258;-77
2021/12/03 14:40:17;;;;;;;;;2.75;2.50;;;;;6.46;100.00;100527.31;5015539;28;45365;-77
2021/12/03 14:45:36;;;;;;;;;3.00;2.75;;;;;6.57;100.00;100520.19;5017188;28;45748;-75
2021/12/03 14:53:38;;;;;;;;;4.50;3.00;;;;;6.59;100.00;100518.59;4997305;28;45834;-74
2021/12/03 14:56:13;;;;;;;;;2.25;2.25;;;;;6.62;100.00;100508.47;5015376;28;45344;-78
2021/12/03 14:58:49;;;;;;;;;3.00;1.25;;;;;6.63;100.00;100505.97;5015645;28;45400;-75
2021/12/03 15:09:21;;;;;;;;;1.50;1.50;;;;;6.63;100.00;100493.13;5015712;28;45298;-75
2021/12/03 15:25:14;;;;;;;;;1.75;1.75;;;;;6.73;100.00;100473.94;5016869;28;45890;-81
2021/12/03 15:30:33;;;;;;;;;3.25;2.25;;;;;6.78;100.00;100474.19;5018511;28;45412;-76
2021/12/03 15:33:17;;;;;;;;;5.00;2.50;;;;;6.76;100.00;100466.38;5018487;28;45492;-82
2021/12/03 15:36:31;;;;;;;;;1.25;1.25;;;;;6.80;100.00;100472.59;5018467;28;46697;-81
2021/12/03 15:57:26;;;;;;;;;3.00;3.00;;;;;6.80;100.00;100429.72;5017482;28;45413;-76
2021/12/03 16:08:08;;;;;;;;;2.75;2.75;;;;;6.88;100.00;100413.81;5017310;28;45340;-78
2021/12/03 16:16:34;;;;;;;;;2.00;2.00;;;;;6.87;100.00;100388.88;5018370;28;45444;-79
2021/12/03 16:18:56;;;;;;;;;3.00;2.75;;;;;6.81;100.00;100367.16;5017809;28;46105;-78
2021/12/03 16:24:05;;;;;;;;;3.50;3.50;;;;;6.90;100.00;100355.59;5017952;28;45366;-82
2021/12/03 16:53:29;;;;;;;;;5.25;3.75;;;;;6.82;100.00;100316.59;5017356;28;45389;-76
2021/12/03 16:56:02;;;;;;;;;3.25;2.00;;;;;6.78;100.00;100297.53;4998983;28;45310;-79
2021/12/03 16:58:29;;;;;;;;;1.00;1.00;;;;;6.86;100.00;100307.34;5017578;28;45231;-79
2021/12/03 17:04:02;;;;;;;;;2.25;2.25;;;;;6.89;100.00;100302.34;5017428;28;45340;-73
2021/12/03 17:14:58;;;;;;;;;4.00;2.25;;;;;7.00;100.00;100290.03;5016504;28;45345;-76
2021/12/03 17:47:12;;;;;;;;;6.25;4.25;;;;;7.14;100.00;100252.97;5015058;28;45849;-75
2021/12/03 17:49:52;;;;;;;;;5.75;5.75;;;;;7.04;100.00;100225.91;5016414;28;45327;-77
2021/12/03 17:55:21;;;;;;;;;12.00;10.25;;;;;7.13;100.00;100228.94;5015680;28;45402;-79
2021/12/03 17:58:07;;;;;;;;;13.50;9.25;;;;;7.10;100.00;100210.78;5016550;28;45824;-78
2021/12/03 18:00:52;;;;;;;;;12.25;12.25;;;;;7.11;100.00;100203.94;5016409;28;45312;-75
2021/12/03 18:06:08;;;;;;;;;10.00;9.50;;;;;7.14;100.00;100196.34;5015627;28;45355;-75
2021/12/03 18:08:43;;;;;;;;;7.00;6.25;;;;;7.11;100.00;100180.78;5015849;28;45466;-74